Terminal Aerodrome Forecast
Issued by NWS

Home | Current Version | Previous Version | Text Only | Print | Product List | Glossary On
Versions: 1 2 3 4 5 6 7 8 9 10 11 12 13
000
FTUS45 KABQ 290600 AAA
TAFLVS
TAF AMD
KLVS 290642Z 2907/3006 01009KT P6SM BKN200
     FM291600 06011G18KT P6SM SCT040 BKN120
     FM292100 11011KT P6SM FEW040 BKN080
     FM300400 13009KT P6SM VCSH BKN030 OVC070=

USA.gov is the U.S. government's official web portal to all federal, state and local government web resources and services.